Terminal Aerodrome Forecast
Issued by NWS

Home | Current Version | Previous Version | Text Only | Print | Product List | Glossary On
Versions: 1 2 3 4 5 6 7 8 9 10 11 12 13 14 15 16 17 18 19 20 21 22 23 24 25 26 27 28 29 30
810
FTUS43 KILX 300525
TAFDEC
TAF
KDEC 300525Z 3006/0106 08012KT P6SM OVC110
     FM300800 08012KT P6SM VCSH OVC040
     FM301000 09014KT 5SM -SHRA BR VCTS OVC020CB
     FM301400 11015G24KT 2SM -SHRA BR VCTS OVC009CB
     FM010300 13008KT P6SM VCSH BKN030=

USA.gov is the U.S. government's official web portal to all federal, state and local government web resources and services.